KNGU/NGU METAR and TAF weather

Enter ICAO airport designator
Station Type Date Time Source
KNGU METAR 2021/09/27 06:59 UTC NOAA

KNGU 270659Z 00000KT 10SM CLR 16/12 A3010 RMK AO2 SLP191 T01560117 $


Station Type Date Time Source
KNGU Decoded METAR 2021/09/27 06:59 UTC NOAA

Norfolk, Naval Air Station, VA, United States (KNGU) 36-56-01N 076-17-45W 8M
Sep 27, 2021 - 02:59 AM EDT / 2021.09.27 0659 UTC
Wind: Calm:0
Visibility: 10 mile(s):0
Sky conditions: clear
Temperature: 60.1 F (15.6 C)
Dew Point: 53.1 F (11.7 C)
Relative Humidity: 77%
Pressure (altimeter): 30.1 in. Hg (1019 hPa)
ob: KNGU 270659Z 00000KT 10SM CLR 16/12 A3010 RMK AO2 SLP191 T01560117
cycle: 7

Station Type Date Time Source
KNGU TAF 2021/09/26 23:58 UTC NOAA

TAF KNGU 2623/2723 30010KT 9999 FEW350 QNH2995INS T17/2707Z T26/2721Z FN00243

Example: see airport list